sensor_id;sensor_type;location;lat;lon;timestamp;P1;P2;P0
55549;PMS7003;41397;49.972;18.944;2023-09-08T00:00:31;29;26;19
55549;PMS7003;41397;49.972;18.944;2023-09-08T00:03:37;26;26;15
55549;PMS7003;41397;49.972;18.944;2023-09-08T00:06:38;24;23;17
55549;PMS7003;41397;49.972;18.944;2023-09-08T00:09:39;24;23;17
55549;PMS7003;41397;49.972;18.944;2023-09-08T00:12:41;29;27;20
55549;PMS7003;41397;49.972;18.944;2023-09-08T00:15:42;30;28;20
55549;PMS7003;41397;49.972;18.944;2023-09-08T00:18:43;23;22;17
55549;PMS7003;41397;49.972;18.944;2023-09-08T00:21:44;29;26;20
55549;PMS7003;41397;49.972;18.944;2023-09-08T00:24:46;33;30;21
55549;PMS7003;41397;49.972;18.944;2023-09-08T00:27:47;33;30;20
55549;PMS7003;41397;49.972;18.944;2023-09-08T00:30:49;34;28;18
55549;PMS7003;41397;49.972;18.944;2023-09-08T00:33:50;30;28;19
55549;PMS7003;41397;49.972;18.944;2023-09-08T00:36:54;29;27;21
55549;PMS7003;41397;49.972;18.944;2023-09-08T00:39:55;32;27;17
55549;PMS7003;41397;49.972;18.944;2023-09-08T00:42:57;35;30;23
55549;PMS7003;41397;49.972;18.944;2023-09-08T00:45:58;29;28;17
55549;PMS7003;41397;49.972;18.944;2023-09-08T00:49:02;27;26;19
55549;PMS7003;41397;49.972;18.944;2023-09-08T00:52:05;32;28;19
55549;PMS7003;41397;49.972;18.944;2023-09-08T00:55:07;28;27;19
55549;PMS7003;41397;49.972;18.944;2023-09-08T00:58:09;33;30;18
55549;PMS7003;41397;49.972;18.944;2023-09-08T01:01:11;30;28;20
55549;PMS7003;41397;49.972;18.944;2023-09-08T01:04:13;29;27;19
55549;PMS7003;41397;49.972;18.944;2023-09-08T01:07:14;21;21;17
55549;PMS7003;41397;49.972;18.944;2023-09-08T01:10:17;29;27;18
55549;PMS7003;41397;49.972;18.944;2023-09-08T01:13:18;30;28;21
55549;PMS7003;41397;49.972;18.944;2023-09-08T01:16:19;29;27;20
55549;PMS7003;41397;49.972;18.944;2023-09-08T01:19:20;32;29;20
55549;PMS7003;41397;49.972;18.944;2023-09-08T01:25:39;30;29;21
55549;PMS7003;41397;49.972;18.944;2023-09-08T01:28:45;27;26;20
55549;PMS7003;41397;49.972;18.944;2023-09-08T01:31:50;28;26;20
55549;PMS7003;41397;49.972;18.944;2023-09-08T01:34:52;28;26;17
55549;PMS7003;41397;49.972;18.944;2023-09-08T01:37:54;26;25;18
55549;PMS7003;41397;49.972;18.944;2023-09-08T01:40:55;24;23;15
55549;PMS7003;41397;49.972;18.944;2023-09-08T01:43:56;33;29;21
55549;PMS7003;41397;49.972;18.944;2023-09-08T01:46:58;28;27;19
55549;PMS7003;41397;49.972;18.944;2023-09-08T01:50:00;31;28;19
55549;PMS7003;41397;49.972;18.944;2023-09-08T01:53:01;27;24;17
55549;PMS7003;41397;49.972;18.944;2023-09-08T01:56:02;32;25;17
55549;PMS7003;41397;49.972;18.944;2023-09-08T01:59:03;36;28;19
55549;PMS7003;41397;49.972;18.944;2023-09-08T02:02:05;31;28;20
55549;PMS7003;41397;49.972;18.944;2023-09-08T02:05:08;25;24;18
55549;PMS7003;41397;49.972;18.944;2023-09-08T02:08:09;22;21;13
55549;PMS7003;41397;49.972;18.944;2023-09-08T02:11:11;24;23;17
55549;PMS7003;41397;49.972;18.944;2023-09-08T02:14:12;23;23;17
55549;PMS7003;41397;49.972;18.944;2023-09-08T02:17:17;27;26;20
55549;PMS7003;41397;49.972;18.944;2023-09-08T02:20:18;30;27;18
55549;PMS7003;41397;49.972;18.944;2023-09-08T02:23:19;30;28;19
55549;PMS7003;41397;49.972;18.944;2023-09-08T02:26:20;23;23;15
55549;PMS7003;41397;49.972;18.944;2023-09-08T02:29:24;24;24;16
55549;PMS7003;41397;49.972;18.944;2023-09-08T02:32:26;24;23;18
55549;PMS7003;41397;49.972;18.944;2023-09-08T02:35:27;27;26;19
55549;PMS7003;41397;49.972;18.944;2023-09-08T02:38:28;29;26;16
55549;PMS7003;41397;49.972;18.944;2023-09-08T02:41:33;27;25;17
55549;PMS7003;41397;49.972;18.944;2023-09-08T02:44:34;29;22;13
55549;PMS7003;41397;49.972;18.944;2023-09-08T02:47:36;21;21;15
55549;PMS7003;41397;49.972;18.944;2023-09-08T02:50:37;29;28;17
55549;PMS7003;41397;49.972;18.944;2023-09-08T02:53:40;29;27;18
55549;PMS7003;41397;49.972;18.944;2023-09-08T02:56:42;23;22;15
55549;PMS7003;41397;49.972;18.944;2023-09-08T02:59:43;25;24;19
55549;PMS7003;41397;49.972;18.944;2023-09-08T03:02:52;30;28;18
55549;PMS7003;41397;49.972;18.944;2023-09-08T03:05:53;27;24;19
55549;PMS7003;41397;49.972;18.944;2023-09-08T03:08:58;25;25;17
55549;PMS7003;41397;49.972;18.944;2023-09-08T03:12:00;27;25;18
55549;PMS7003;41397;49.972;18.944;2023-09-08T03:15:03;26;25;18
55549;PMS7003;41397;49.972;18.944;2023-09-08T03:18:05;28;27;18
55549;PMS7003;41397;49.972;18.944;2023-09-08T03:21:06;32;29;20
55549;PMS7003;41397;49.972;18.944;2023-09-08T03:24:11;25;24;19
55549;PMS7003;41397;49.972;18.944;2023-09-08T03:27:12;33;29;21
55549;PMS7003;41397;49.972;18.944;2023-09-08T03:30:13;27;26;18
55549;PMS7003;41397;49.972;18.944;2023-09-08T03:33:14;27;26;18
55549;PMS7003;41397;49.972;18.944;2023-09-08T03:36:15;26;25;17
55549;PMS7003;41397;49.972;18.944;2023-09-08T03:39:17;20;20;15
55549;PMS7003;41397;49.972;18.944;2023-09-08T03:42:20;25;24;16
55549;PMS7003;41397;49.972;18.944;2023-09-08T03:45:21;20;20;15
55549;PMS7003;41397;49.972;18.944;2023-09-08T03:48:22;36;28;20
55549;PMS7003;41397;49.972;18.944;2023-09-08T03:51:24;22;22;15
55549;PMS7003;41397;49.972;18.944;2023-09-08T03:54:25;27;24;16
55549;PMS7003;41397;49.972;18.944;2023-09-08T03:57:26;24;23;17
55549;PMS7003;41397;49.972;18.944;2023-09-08T04:00:27;28;26;19
55549;PMS7003;41397;49.972;18.944;2023-09-08T04:03:29;24;24;18
55549;PMS7003;41397;49.972;18.944;2023-09-08T04:06:30;26;25;16
55549;PMS7003;41397;49.972;18.944;2023-09-08T04:09:31;25;24;19
55549;PMS7003;41397;49.972;18.944;2023-09-08T04:12:32;26;25;18
55549;PMS7003;41397;49.972;18.944;2023-09-08T04:15:33;27;22;17
55549;PMS7003;41397;49.972;18.944;2023-09-08T04:18:38;27;26;17
55549;PMS7003;41397;49.972;18.944;2023-09-08T04:21:40;24;24;17
55549;PMS7003;41397;49.972;18.944;2023-09-08T04:24:41;20;20;16
55549;PMS7003;41397;49.972;18.944;2023-09-08T04:27:43;19;19;15
55549;PMS7003;41397;49.972;18.944;2023-09-08T04:30:46;18;18;14
55549;PMS7003;41397;49.972;18.944;2023-09-08T04:33:47;24;23;18
55549;PMS7003;41397;49.972;18.944;2023-09-08T04:36:48;20;20;16
55549;PMS7003;41397;49.972;18.944;2023-09-08T04:39:49;16;16;12
55549;PMS7003;41397;49.972;18.944;2023-09-08T04:42:54;19;19;16
55549;PMS7003;41397;49.972;18.944;2023-09-08T04:48:44;26;25;20
55549;PMS7003;41397;49.972;18.944;2023-09-08T04:51:45;21;21;16
55549;PMS7003;41397;49.972;18.944;2023-09-08T04:54:46;22;22;19
55549;PMS7003;41397;49.972;18.944;2023-09-08T04:57:52;23;23;18
55549;PMS7003;41397;49.972;18.944;2023-09-08T05:00:53;24;24;18
55549;PMS7003;41397;49.972;18.944;2023-09-08T05:03:54;47;40;26
55549;PMS7003;41397;49.972;18.944;2023-09-08T05:06:55;29;28;20
55549;PMS7003;41397;49.972;18.944;2023-09-08T05:10:00;26;24;17
55549;PMS7003;41397;49.972;18.944;2023-09-08T05:13:01;31;24;18
55549;PMS7003;41397;49.972;18.944;2023-09-08T05:16:02;25;24;16
55549;PMS7003;41397;49.972;18.944;2023-09-08T05:19:12;22;22;16
55549;PMS7003;41397;49.972;18.944;2023-09-08T05:22:14;22;22;15
55549;PMS7003;41397;49.972;18.944;2023-09-08T05:25:15;20;20;17
55549;PMS7003;41397;49.972;18.944;2023-09-08T05:28:16;19;19;15
55549;PMS7003;41397;49.972;18.944;2023-09-08T05:31:17;24;24;14
55549;PMS7003;41397;49.972;18.944;2023-09-08T05:34:18;34;31;21
55549;PMS7003;41397;49.972;18.944;2023-09-08T05:37:19;23;23;18
55549;PMS7003;41397;49.972;18.944;2023-09-08T05:40:20;25;22;16
55549;PMS7003;41397;49.972;18.944;2023-09-08T05:43:24;20;20;16
55549;PMS7003;41397;49.972;18.944;2023-09-08T05:46:26;23;23;18
55549;PMS7003;41397;49.972;18.944;2023-09-08T05:49:27;23;23;18
55549;PMS7003;41397;49.972;18.944;2023-09-08T05:52:28;23;23;17
55549;PMS7003;41397;49.972;18.944;2023-09-08T05:55:29;22;22;16
55549;PMS7003;41397;49.972;18.944;2023-09-08T05:58:31;15;15;10
55549;PMS7003;41397;49.972;18.944;2023-09-08T06:01:32;22;22;18
55549;PMS7003;41397;49.972;18.944;2023-09-08T06:04:33;24;21;15
55549;PMS7003;41397;49.972;18.944;2023-09-08T06:07:34;24;24;17
55549;PMS7003;41397;49.972;18.944;2023-09-08T06:10:39;20;20;15
55549;PMS7003;41397;49.972;18.944;2023-09-08T06:13:40;22;22;17
55549;PMS7003;41397;49.972;18.944;2023-09-08T06:16:42;23;23;16
55549;PMS7003;41397;49.972;18.944;2023-09-08T06:19:43;23;23;17
55549;PMS7003;41397;49.972;18.944;2023-09-08T06:22:46;22;22;16
55549;PMS7003;41397;49.972;18.944;2023-09-08T06:25:48;26;25;18
55549;PMS7003;41397;49.972;18.944;2023-09-08T06:28:50;21;21;16
55549;PMS7003;41397;49.972;18.944;2023-09-08T06:31:51;23;23;17
55549;PMS7003;41397;49.972;18.944;2023-09-08T06:34:54;24;24;18
55549;PMS7003;41397;49.972;18.944;2023-09-08T06:37:55;22;22;16
55549;PMS7003;41397;49.972;18.944;2023-09-08T06:40:58;22;22;18
55549;PMS7003;41397;49.972;18.944;2023-09-08T06:43:59;19;19;16
55549;PMS7003;41397;49.972;18.944;2023-09-08T06:47:02;17;17;14
55549;PMS7003;41397;49.972;18.944;2023-09-08T06:50:07;19;19;14
55549;PMS7003;41397;49.972;18.944;2023-09-08T06:53:08;15;15;12
55549;PMS7003;41397;49.972;18.944;2023-09-08T06:56:11;16;16;13
55549;PMS7003;41397;49.972;18.944;2023-09-08T06:59:12;19;19;15
55549;PMS7003;41397;49.972;18.944;2023-09-08T07:02:13;14;14;12
55549;PMS7003;41397;49.972;18.944;2023-09-08T07:05:15;20;20;14
55549;PMS7003;41397;49.972;18.944;2023-09-08T07:08:16;17;17;14
55549;PMS7003;41397;49.972;18.944;2023-09-08T07:11:18;24;24;19
55549;PMS7003;41397;49.972;18.944;2023-09-08T07:14:19;19;19;15
55549;PMS7003;41397;49.972;18.944;2023-09-08T07:17:21;16;16;13
55549;PMS7003;41397;49.972;18.944;2023-09-08T07:20:23;16;16;13
55549;PMS7003;41397;49.972;18.944;2023-09-08T07:23:25;19;18;15
55549;PMS7003;41397;49.972;18.944;2023-09-08T07:26:26;14;14;11
55549;PMS7003;41397;49.972;18.944;2023-09-08T07:29:28;17;17;13
55549;PMS7003;41397;49.972;18.944;2023-09-08T07:32:29;18;18;13
55549;PMS7003;41397;49.972;18.944;2023-09-08T07:35:35;20;20;17
55549;PMS7003;41397;49.972;18.944;2023-09-08T07:38:38;21;21;14
55549;PMS7003;41397;49.972;18.944;2023-09-08T07:41:39;16;16;13
55549;PMS7003;41397;49.972;18.944;2023-09-08T07:44:41;20;19;15
55549;PMS7003;41397;49.972;18.944;2023-09-08T07:47:42;17;17;15
55549;PMS7003;41397;49.972;18.944;2023-09-08T07:50:45;14;14;12
55549;PMS7003;41397;49.972;18.944;2023-09-08T07:53:46;11;11;9
55549;PMS7003;41397;49.972;18.944;2023-09-08T07:56:48;15;15;12
55549;PMS7003;41397;49.972;18.944;2023-09-08T07:59:49;17;17;13
55549;PMS7003;41397;49.972;18.944;2023-09-08T08:02:51;13;12;11
55549;PMS7003;41397;49.972;18.944;2023-09-08T08:05:56;19;19;14
55549;PMS7003;41397;49.972;18.944;2023-09-08T08:08:58;12;12;11
55549;PMS7003;41397;49.972;18.944;2023-09-08T08:11:59;16;16;14
55549;PMS7003;41397;49.972;18.944;2023-09-08T08:15:00;22;22;18
55549;PMS7003;41397;49.972;18.944;2023-09-08T08:18:03;18;18;13
55549;PMS7003;41397;49.972;18.944;2023-09-08T08:21:08;15;15;11
55549;PMS7003;41397;49.972;18.944;2023-09-08T08:24:09;18;18;14
55549;PMS7003;41397;49.972;18.944;2023-09-08T08:27:11;13;13;11
55549;PMS7003;41397;49.972;18.944;2023-09-08T08:30:12;18;18;13
55549;PMS7003;41397;49.972;18.944;2023-09-08T08:33:14;13;13;12
55549;PMS7003;41397;49.972;18.944;2023-09-08T08:36:15;14;14;11
55549;PMS7003;41397;49.972;18.944;2023-09-08T08:39:16;17;17;11
55549;PMS7003;41397;49.972;18.944;2023-09-08T08:42:17;12;12;11
55549;PMS7003;41397;49.972;18.944;2023-09-08T08:45:25;10;10;7
55549;PMS7003;41397;49.972;18.944;2023-09-08T08:48:27;19;19;12
55549;PMS7003;41397;49.972;18.944;2023-09-08T08:51:31;20;20;17
55549;PMS7003;41397;49.972;18.944;2023-09-08T08:54:41;12;12;11
55549;PMS7003;41397;49.972;18.944;2023-09-08T08:57:40;13;13;11
55549;PMS7003;41397;49.972;18.944;2023-09-08T09:00:41;18;18;11
55549;PMS7003;41397;49.972;18.944;2023-09-08T09:03:49;14;14;12
55549;PMS7003;41397;49.972;18.944;2023-09-08T09:06:55;15;15;12
55549;PMS7003;41397;49.972;18.944;2023-09-08T09:09:56;11;11;8
55549;PMS7003;41397;49.972;18.944;2023-09-08T09:12:58;17;17;15
55549;PMS7003;41397;49.972;18.944;2023-09-08T09:16:01;18;18;15
55549;PMS7003;41397;49.972;18.944;2023-09-08T09:19:04;17;17;14
55549;PMS7003;41397;49.972;18.944;2023-09-08T09:22:05;13;13;11
55549;PMS7003;41397;49.972;18.944;2023-09-08T09:25:07;19;19;14
55549;PMS7003;41397;49.972;18.944;2023-09-08T09:28:08;13;13;12
55549;PMS7003;41397;49.972;18.944;2023-09-08T09:31:09;14;14;11
55549;PMS7003;41397;49.972;18.944;2023-09-08T09:34:11;12;12;10
55549;PMS7003;41397;49.972;18.944;2023-09-08T09:37:13;13;13;12
55549;PMS7003;41397;49.972;18.944;2023-09-08T09:40:14;17;17;15
55549;PMS7003;41397;49.972;18.944;2023-09-08T09:43:16;13;13;12
55549;PMS7003;41397;49.972;18.944;2023-09-08T09:46:17;18;18;14
55549;PMS7003;41397;49.972;18.944;2023-09-08T09:49:22;14;14;13
55549;PMS7003;41397;49.972;18.944;2023-09-08T09:52:32;18;18;13
55549;PMS7003;41397;49.972;18.944;2023-09-08T09:55:40;11;11;10
55549;PMS7003;41397;49.972;18.944;2023-09-08T09:58:42;14;14;12
55549;PMS7003;41397;49.972;18.944;2023-09-08T10:01:44;12;12;10
55549;PMS7003;41397;49.972;18.944;2023-09-08T10:04:47;10;10;8
55549;PMS7003;41397;49.972;18.944;2023-09-08T10:07:51;11;11;9
55549;PMS7003;41397;49.972;18.944;2023-09-08T10:10:52;10;10;10
55549;PMS7003;41397;49.972;18.944;2023-09-08T10:13:57;11;11;9
55549;PMS7003;41397;49.972;18.944;2023-09-08T10:17:00;9;9;8
55549;PMS7003;41397;49.972;18.944;2023-09-08T10:20:03;11;11;7
55549;PMS7003;41397;49.972;18.944;2023-09-08T10:23:12;13;13;10
55549;PMS7003;41397;49.972;18.944;2023-09-08T10:26:21;10;10;9
55549;PMS7003;41397;49.972;18.944;2023-09-08T10:29:28;13;13;11
55549;PMS7003;41397;49.972;18.944;2023-09-08T10:32:34;11;11;9
55549;PMS7003;41397;49.972;18.944;2023-09-08T10:35:43;12;12;11
55549;PMS7003;41397;49.972;18.944;2023-09-08T10:38:45;12;12;10
55549;PMS7003;41397;49.972;18.944;2023-09-08T10:41:51;13;13;11
55549;PMS7003;41397;49.972;18.944;2023-09-08T10:45:13;14;14;10
55549;PMS7003;41397;49.972;18.944;2023-09-08T10:48:15;13;13;11
55549;PMS7003;41397;49.972;18.944;2023-09-08T10:51:19;11;11;11
55549;PMS7003;41397;49.972;18.944;2023-09-08T10:55:11;16;13;11
55549;PMS7003;41397;49.972;18.944;2023-09-08T10:57:39;12;12;9
55549;PMS7003;41397;49.972;18.944;2023-09-08T11:00:46;12;12;11
55549;PMS7003;41397;49.972;18.944;2023-09-08T11:03:48;9;9;8
55549;PMS7003;41397;49.972;18.944;2023-09-08T11:06:52;11;11;10
55549;PMS7003;41397;49.972;18.944;2023-09-08T11:09:53;13;13;11
55549;PMS7003;41397;49.972;18.944;2023-09-08T11:12:54;10;10;9
55549;PMS7003;41397;49.972;18.944;2023-09-08T11:15:55;12;12;11
55549;PMS7003;41397;49.972;18.944;2023-09-08T11:18:57;14;14;12
55549;PMS7003;41397;49.972;18.944;2023-09-08T11:21:58;15;14;12
55549;PMS7003;41397;49.972;18.944;2023-09-08T11:25:00;15;15;13
55549;PMS7003;41397;49.972;18.944;2023-09-08T11:28:05;11;11;10
55549;PMS7003;41397;49.972;18.944;2023-09-08T11:31:06;10;10;8
55549;PMS7003;41397;49.972;18.944;2023-09-08T11:34:08;10;10;9
55549;PMS7003;41397;49.972;18.944;2023-09-08T11:37:19;9;9;8
55549;PMS7003;41397;49.972;18.944;2023-09-08T11:40:20;10;10;10
55549;PMS7003;41397;49.972;18.944;2023-09-08T11:43:23;9;9;8
55549;PMS7003;41397;49.972;18.944;2023-09-08T11:46:24;14;14;11
55549;PMS7003;41397;49.972;18.944;2023-09-08T11:49:27;16;16;14
55549;PMS7003;41397;49.972;18.944;2023-09-08T11:52:36;14;14;12
55549;PMS7003;41397;49.972;18.944;2023-09-08T11:55:37;16;16;11
55549;PMS7003;41397;49.972;18.944;2023-09-08T11:58:40;13;13;11
55549;PMS7003;41397;49.972;18.944;2023-09-08T12:01:43;8;8;6
55549;PMS7003;41397;49.972;18.944;2023-09-08T12:04:44;12;12;9
55549;PMS7003;41397;49.972;18.944;2023-09-08T12:07:46;10;10;6
55549;PMS7003;41397;49.972;18.944;2023-09-08T12:10:48;10;10;9
55549;PMS7003;41397;49.972;18.944;2023-09-08T12:13:49;10;10;8
55549;PMS7003;41397;49.972;18.944;2023-09-08T12:16:54;14;14;12
55549;PMS7003;41397;49.972;18.944;2023-09-08T12:20:12;14;14;12
55549;PMS7003;41397;49.972;18.944;2023-09-08T12:26:24;12;12;11
55549;PMS7003;41397;49.972;18.944;2023-09-08T12:29:25;13;13;12
55549;PMS7003;41397;49.972;18.944;2023-09-08T12:32:35;13;13;11
55549;PMS7003;41397;49.972;18.944;2023-09-08T12:35:37;15;15;14
55549;PMS7003;41397;49.972;18.944;2023-09-08T12:38:38;11;11;9
55549;PMS7003;41397;49.972;18.944;2023-09-08T12:41:39;16;16;12
55549;PMS7003;41397;49.972;18.944;2023-09-08T12:44:42;12;12;9
55549;PMS7003;41397;49.972;18.944;2023-09-08T12:47:44;11;11;10
55549;PMS7003;41397;49.972;18.944;2023-09-08T12:50:48;11;11;9
55549;PMS7003;41397;49.972;18.944;2023-09-08T12:53:49;15;12;10
55549;PMS7003;41397;49.972;18.944;2023-09-08T12:56:51;11;11;10
55549;PMS7003;41397;49.972;18.944;2023-09-08T12:59:52;9;9;8
55549;PMS7003;41397;49.972;18.944;2023-09-08T13:02:53;11;11;11
55549;PMS7003;41397;49.972;18.944;2023-09-08T13:05:54;14;14;11
55549;PMS7003;41397;49.972;18.944;2023-09-08T13:08:58;12;12;8
55549;PMS7003;41397;49.972;18.944;2023-09-08T13:11:59;10;10;10
55549;PMS7003;41397;49.972;18.944;2023-09-08T13:15:00;16;16;11
55549;PMS7003;41397;49.972;18.944;2023-09-08T13:18:02;11;11;10
55549;PMS7003;41397;49.972;18.944;2023-09-08T13:21:06;0;0;0
55549;PMS7003;41397;49.972;18.944;2023-09-08T13:24:08;12;12;11
55549;PMS7003;41397;49.972;18.944;2023-09-08T13:27:09;13;13;11
55549;PMS7003;41397;49.972;18.944;2023-09-08T13:30:12;13;13;11
55549;PMS7003;41397;49.972;18.944;2023-09-08T13:33:15;13;13;11
55549;PMS7003;41397;49.972;18.944;2023-09-08T13:36:16;12;12;10
55549;PMS7003;41397;49.972;18.944;2023-09-08T13:39:17;14;14;12
55549;PMS7003;41397;49.972;18.944;2023-09-08T13:42:18;11;11;10
55549;PMS7003;41397;49.972;18.944;2023-09-08T13:45:21;10;10;9
55549;PMS7003;41397;49.972;18.944;2023-09-08T13:48:22;11;11;9
55549;PMS7003;41397;49.972;18.944;2023-09-08T13:51:23;12;12;11
55549;PMS7003;41397;49.972;18.944;2023-09-08T13:54:25;13;13;11
55549;PMS7003;41397;49.972;18.944;2023-09-08T13:57:29;13;13;10
55549;PMS7003;41397;49.972;18.944;2023-09-08T14:00:30;11;11;11
55549;PMS7003;41397;49.972;18.944;2023-09-08T14:03:31;12;12;9
55549;PMS7003;41397;49.972;18.944;2023-09-08T14:06:32;10;10;9
55549;PMS7003;41397;49.972;18.944;2023-09-08T14:09:37;12;12;11
55549;PMS7003;41397;49.972;18.944;2023-09-08T14:12:38;13;13;9
55549;PMS7003;41397;49.972;18.944;2023-09-08T14:15:39;10;10;9
55549;PMS7003;41397;49.972;18.944;2023-09-08T14:18:40;13;13;11
55549;PMS7003;41397;49.972;18.944;2023-09-08T14:21:45;13;13;11
55549;PMS7003;41397;49.972;18.944;2023-09-08T14:24:46;18;16;13
55549;PMS7003;41397;49.972;18.944;2023-09-08T14:27:47;15;15;11
55549;PMS7003;41397;49.972;18.944;2023-09-08T14:33:57;11;11;10
55549;PMS7003;41397;49.972;18.944;2023-09-08T14:36:58;13;13;11
55549;PMS7003;41397;49.972;18.944;2023-09-08T14:39:59;14;14;11
55549;PMS7003;41397;49.972;18.944;2023-09-08T14:43:00;14;14;12
55549;PMS7003;41397;49.972;18.944;2023-09-08T14:46:02;10;10;7
55549;PMS7003;41397;49.972;18.944;2023-09-08T14:49:06;12;12;9
55549;PMS7003;41397;49.972;18.944;2023-09-08T14:52:07;12;12;11
55549;PMS7003;41397;49.972;18.944;2023-09-08T14:55:08;20;20;12
55549;PMS7003;41397;49.972;18.944;2023-09-08T14:58:10;13;13;9
55549;PMS7003;41397;49.972;18.944;2023-09-08T15:01:13;13;13;12
55549;PMS7003;41397;49.972;18.944;2023-09-08T15:04:19;16;16;14
55549;PMS7003;41397;49.972;18.944;2023-09-08T15:07:23;9;9;9
55549;PMS7003;41397;49.972;18.944;2023-09-08T15:10:30;18;18;14
55549;PMS7003;41397;49.972;18.944;2023-09-08T15:16:58;8;8;7
55549;PMS7003;41397;49.972;18.944;2023-09-08T15:20:00;13;13;12
55549;PMS7003;41397;49.972;18.944;2023-09-08T15:23:24;10;10;9
55549;PMS7003;41397;49.972;18.944;2023-09-08T15:26:46;12;12;10
55549;PMS7003;41397;49.972;18.944;2023-09-08T15:29:47;9;9;8
55549;PMS7003;41397;49.972;18.944;2023-09-08T15:32:49;13;13;12
55549;PMS7003;41397;49.972;18.944;2023-09-08T15:35:57;12;12;11
55549;PMS7003;41397;49.972;18.944;2023-09-08T15:39:16;11;11;10
55549;PMS7003;41397;49.972;18.944;2023-09-08T15:42:26;6;6;5
55549;PMS7003;41397;49.972;18.944;2023-09-08T15:45:39;12;12;10
55549;PMS7003;41397;49.972;18.944;2023-09-08T15:48:41;15;15;12
55549;PMS7003;41397;49.972;18.944;2023-09-08T15:51:42;16;16;13
55549;PMS7003;41397;49.972;18.944;2023-09-08T15:54:43;11;11;10
55549;PMS7003;41397;49.972;18.944;2023-09-08T15:57:44;7;7;6
55549;PMS7003;41397;49.972;18.944;2023-09-08T16:00:46;10;10;10
55549;PMS7003;41397;49.972;18.944;2023-09-08T16:03:47;12;12;10
55549;PMS7003;41397;49.972;18.944;2023-09-08T16:06:48;14;14;12
55549;PMS7003;41397;49.972;18.944;2023-09-08T16:09:50;14;14;11
55549;PMS7003;41397;49.972;18.944;2023-09-08T16:12:51;13;13;11
55549;PMS7003;41397;49.972;18.944;2023-09-08T16:15:55;11;11;10
55549;PMS7003;41397;49.972;18.944;2023-09-08T16:18:56;16;16;14
55549;PMS7003;41397;49.972;18.944;2023-09-08T16:21:58;14;14;11
55549;PMS7003;41397;49.972;18.944;2023-09-08T16:24:59;17;17;15
55549;PMS7003;41397;49.972;18.944;2023-09-08T16:28:00;14;14;11
55549;PMS7003;41397;49.972;18.944;2023-09-08T16:31:05;12;12;10
55549;PMS7003;41397;49.972;18.944;2023-09-08T16:34:08;16;16;13
55549;PMS7003;41397;49.972;18.944;2023-09-08T16:37:09;15;15;12
55549;PMS7003;41397;49.972;18.944;2023-09-08T16:40:10;13;13;11
55549;PMS7003;41397;49.972;18.944;2023-09-08T16:43:11;17;17;13
55549;PMS7003;41397;49.972;18.944;2023-09-08T16:46:12;16;16;13
55549;PMS7003;41397;49.972;18.944;2023-09-08T16:49:14;18;18;14
55549;PMS7003;41397;49.972;18.944;2023-09-08T16:52:18;8;8;7
55549;PMS7003;41397;49.972;18.944;2023-09-08T16:55:19;13;13;11
55549;PMS7003;41397;49.972;18.944;2023-09-08T16:58:20;15;15;12
55549;PMS7003;41397;49.972;18.944;2023-09-08T17:01:21;13;13;10
55549;PMS7003;41397;49.972;18.944;2023-09-08T17:04:22;16;16;12
55549;PMS7003;41397;49.972;18.944;2023-09-08T17:07:24;16;16;13
55549;PMS7003;41397;49.972;18.944;2023-09-08T17:10:25;15;15;12
55549;PMS7003;41397;49.972;18.944;2023-09-08T17:13:26;16;16;12
55549;PMS7003;41397;49.972;18.944;2023-09-08T17:16:30;16;16;13
55549;PMS7003;41397;49.972;18.944;2023-09-08T17:19:31;17;17;13
55549;PMS7003;41397;49.972;18.944;2023-09-08T17:22:33;20;20;17
55549;PMS7003;41397;49.972;18.944;2023-09-08T17:25:34;18;18;13
55549;PMS7003;41397;49.972;18.944;2023-09-08T17:28:37;18;18;14
55549;PMS7003;41397;49.972;18.944;2023-09-08T17:31:38;22;22;16
55549;PMS7003;41397;49.972;18.944;2023-09-08T17:34:39;14;14;13
55549;PMS7003;41397;49.972;18.944;2023-09-08T17:37:41;19;19;15
55549;PMS7003;41397;49.972;18.944;2023-09-08T17:40:45;17;17;14
55549;PMS7003;41397;49.972;18.944;2023-09-08T17:43:46;24;24;20
55549;PMS7003;41397;49.972;18.944;2023-09-08T17:46:47;36;28;20
55549;PMS7003;41397;49.972;18.944;2023-09-08T17:49:49;26;26;18
55549;PMS7003;41397;49.972;18.944;2023-09-08T17:52:53;28;27;17
55549;PMS7003;41397;49.972;18.944;2023-09-08T17:55:54;22;22;17
55549;PMS7003;41397;49.972;18.944;2023-09-08T17:58:55;30;27;19
55549;PMS7003;41397;49.972;18.944;2023-09-08T18:01:56;22;22;17
55549;PMS7003;41397;49.972;18.944;2023-09-08T18:05:01;24;23;18
55549;PMS7003;41397;49.972;18.944;2023-09-08T18:08:02;20;20;15
55549;PMS7003;41397;49.972;18.944;2023-09-08T18:11:03;26;25;19
55549;PMS7003;41397;49.972;18.944;2023-09-08T18:14:05;22;22;17
55549;PMS7003;41397;49.972;18.944;2023-09-08T18:17:08;24;24;19
55549;PMS7003;41397;49.972;18.944;2023-09-08T18:20:11;26;25;19
55549;PMS7003;41397;49.972;18.944;2023-09-08T18:23:12;28;26;18
55549;PMS7003;41397;49.972;18.944;2023-09-08T18:26:14;26;25;19
55549;PMS7003;41397;49.972;18.944;2023-09-08T18:29:16;30;28;20
55549;PMS7003;41397;49.972;18.944;2023-09-08T18:32:18;25;24;18
55549;PMS7003;41397;49.972;18.944;2023-09-08T18:35:19;25;25;19
55549;PMS7003;41397;49.972;18.944;2023-09-08T18:38:20;29;28;22
55549;PMS7003;41397;49.972;18.944;2023-09-08T18:41:24;28;27;20
55549;PMS7003;41397;49.972;18.944;2023-09-08T18:44:25;25;25;20
55549;PMS7003;41397;49.972;18.944;2023-09-08T18:47:27;26;25;19
55549;PMS7003;41397;49.972;18.944;2023-09-08T18:50:28;23;23;18
55549;PMS7003;41397;49.972;18.944;2023-09-08T18:53:32;25;23;17
55549;PMS7003;41397;49.972;18.944;2023-09-08T18:56:34;23;23;18
55549;PMS7003;41397;49.972;18.944;2023-09-08T18:59:35;29;27;19
55549;PMS7003;41397;49.972;18.944;2023-09-08T19:02:37;23;23;17
55549;PMS7003;41397;49.972;18.944;2023-09-08T19:05:39;18;18;16
55549;PMS7003;41397;49.972;18.944;2023-09-08T19:08:41;27;26;19
55549;PMS7003;41397;49.972;18.944;2023-09-08T19:11:43;21;21;16
55549;PMS7003;41397;49.972;18.944;2023-09-08T19:14:44;30;29;21
55549;PMS7003;41397;49.972;18.944;2023-09-08T19:17:47;27;27;19
55549;PMS7003;41397;49.972;18.944;2023-09-08T19:20:48;24;24;17
55549;PMS7003;41397;49.972;18.944;2023-09-08T19:23:50;23;23;19
55549;PMS7003;41397;49.972;18.944;2023-09-08T19:26:51;39;34;24
55549;PMS7003;41397;49.972;18.944;2023-09-08T19:29:55;35;30;22
55549;PMS7003;41397;49.972;18.944;2023-09-08T19:32:56;50;39;24